Weather History for North Padre Island, TX

Change the Weather History Date:

Wednesday, May 9, 2012

  Actual Average Record
Temperature  
Mean Temperature 76 °F -  
Max Temperature 78 °F - - ()
Min Temperature 73 °F - - ()
Cooling Degree Days 10    
Growing Degree Days 26 (Base 50)    
Moisture  
Dew Point 72 °F    
Average Humidity 83    
Maximum Humidity 94    
Minimum Humidity 78    
Precipitation  
Precipitation 0.00 in - - ()
Sea Level Pressure  
Sea Level Pressure 29.90 in    
Wind  
Wind Speed 12 mph (NNE)    
Max Wind Speed 21 mph    
Max Gust Speed 26 mph    
Visibility 6 miles    
Events      
T = Trace of Precipitation, MM = Missing Value Source: NWS Daily Summary

Daily Weather History Graph

Daily Weather History Graph

Search for Another Location

Airport:

Trip Planner

Search our weather history database for the weather conditions in past years. The results will help you decide how hot, cold, wet, or windy it might be!

Date:

Astronomy

May. 09, 2012 Rise Set
Actual Time 6:43 AM CDT 8:05 PM CDT
Civil Twilight 6:18 AM CDT 8:30 PM CDT
Nautical Twilight 5:48 AM CDT 8:59 PM CDT
Astronomical Twilight 5:18 AM CDT 9:30 PM CDT
Moon No Moon Rise 10:05 AM CDT (5/9)
Length of Visible Light 14h 11m
Length of Day
13h 21m
Waning Gibbous, 82% of the Moon is Illuminated
May 9
Waning Gibbous
May 12
Last Quarter
May 20
New
May 28
First Quarter
Jun 4
Full

Hourly Weather History & Observations

Time (CDT) Temp. Dew Point Humidity Pressure Visibility Wind Dir Wind Speed Gust Speed Precip Events Conditions
12:15 AM 78.8 °F 73.4 °F 83% 29.90 in 6.0 mi NE 16.1 mph - N/A   Haze
12:35 AM 78.8 °F 73.4 °F 83% 29.88 in 6.0 mi NNE 13.8 mph - N/A   Haze
12:55 AM 78.8 °F 73.4 °F 83% 29.88 in 6.0 mi NNE 15.0 mph - N/A   Haze
1:15 AM 78.8 °F 73.4 °F 83% 29.89 in 6.0 mi NNE 13.8 mph - N/A   Haze
1:35 AM 78.8 °F 73.4 °F 83% 29.88 in 6.0 mi NE 13.8 mph - N/A   Haze
1:55 AM 78.8 °F 75.2 °F 89% 29.88 in 6.0 mi NNE 12.7 mph - N/A   Haze
2:15 AM 78.8 °F 73.4 °F 83% 29.87 in 6.0 mi NNE 10.4 mph - N/A   Haze
2:35 AM 78.8 °F 73.4 °F 83% 29.88 in 7.0 mi NNE 8.1 mph 16.1 mph N/A   Clear
2:55 AM 78.8 °F 73.4 °F 83% 29.89 in 7.0 mi NNE 9.2 mph - N/A   Partly Cloudy
3:35 AM 78.8 °F 73.4 °F 83% 29.88 in 7.0 mi NE 8.1 mph - N/A   Partly Cloudy
3:55 AM 78.8 °F 73.4 °F 83% 29.88 in 6.0 mi NNE 9.2 mph - N/A   Haze
4:15 AM 78.8 °F 73.4 °F 83% 29.88 in 7.0 mi NNE 3.5 mph - N/A   Scattered Clouds
4:35 AM 78.8 °F 73.4 °F 83% 29.88 in 7.0 mi NNE 4.6 mph - N/A   Overcast
4:55 AM 78.8 °F 73.4 °F 83% 29.89 in 7.0 mi North 4.6 mph - N/A   Overcast
5:15 AM 77.0 °F 73.4 °F 89% 29.89 in 5.0 mi North 8.1 mph - N/A   Overcast
5:35 AM 77.0 °F 73.4 °F 89% 29.90 in 3.0 mi NNE 11.5 mph 20.7 mph N/A   Mostly Cloudy
5:55 AM 75.2 °F 71.6 °F 89% 29.89 in 4.0 mi NNE 10.4 mph - N/A   Scattered Clouds
6:15 AM 75.2 °F 69.8 °F 83% 29.89 in 7.0 mi NNE 8.1 mph - N/A   Mostly Cloudy
6:35 AM 75.2 °F 71.6 °F 89% 29.89 in 5.0 mi NNE 9.2 mph 18.4 mph N/A   Mostly Cloudy
6:55 AM 75.2 °F 73.4 °F 94% 29.89 in 4.0 mi NNE 10.4 mph 18.4 mph N/A   Overcast
7:15 AM 77.0 °F 73.4 °F 89% 29.89 in 5.0 mi North 13.8 mph 19.6 mph N/A   Mostly Cloudy
7:35 AM 77.0 °F 71.6 °F 83% 29.91 in 3.0 mi North 12.7 mph 19.6 mph N/A   Haze
7:55 AM 77.0 °F 71.6 °F 83% 29.92 in 4.0 mi NNE 10.4 mph 17.3 mph N/A   Haze
8:15 AM 77.0 °F 71.6 °F 83% 29.93 in 4.0 mi NNE 9.2 mph 16.1 mph N/A   Haze
8:35 AM 77.0 °F 71.6 °F 83% 29.94 in 4.0 mi North 10.4 mph 16.1 mph N/A   Haze
8:55 AM 77.0 °F 71.6 °F 83% 29.94 in 4.0 mi North 9.2 mph - N/A   Haze
9:15 AM 77.0 °F 71.6 °F 83% 29.94 in 4.0 mi NNE 9.2 mph 16.1 mph N/A   Haze
9:35 AM 77.0 °F 71.6 °F 83% 29.93 in 4.0 mi NNE 9.2 mph 17.3 mph N/A   Haze
9:55 AM 77.0 °F 71.6 °F 83% 29.94 in 4.0 mi NNE 10.4 mph 18.4 mph N/A   Haze
10:15 AM 77.0 °F 71.6 °F 83% 29.94 in 5.0 mi NNE 11.5 mph 18.4 mph N/A   Haze
10:35 AM 77.0 °F 71.6 °F 83% 29.95 in 5.0 mi NE 19.6 mph - N/A   Haze
10:55 AM 77.0 °F 71.6 °F 83% 29.97 in 5.0 mi NNE 13.8 mph 20.7 mph N/A   Haze
11:15 AM 77.0 °F 71.6 °F 83% 29.97 in 5.0 mi NNE 9.2 mph 17.3 mph N/A   Haze
11:35 AM 78.8 °F 71.6 °F 78% 29.97 in 5.0 mi NNE 8.1 mph 16.1 mph N/A   Haze
11:55 AM 78.8 °F 71.6 °F 78% 29.96 in 6.0 mi NNE 9.2 mph 16.1 mph N/A   Haze
12:15 PM 78.8 °F 71.6 °F 78% 29.95 in 5.0 mi NNE 8.1 mph 16.1 mph N/A   Haze
12:35 PM 78.8 °F 73.4 °F 83% 29.94 in 6.0 mi NNE 8.1 mph - N/A   Haze
12:55 PM 78.8 °F 71.6 °F 78% 29.94 in 7.0 mi NNE 8.1 mph - N/A   Mostly Cloudy
1:15 PM 77.0 °F 73.4 °F 89% 29.94 in 5.0 mi NNE 6.9 mph - N/A   Haze
1:35 PM 77.0 °F 71.6 °F 83% 29.92 in 4.0 mi North 5.8 mph - N/A   Haze
1:55 PM 77.0 °F 73.4 °F 89% 29.93 in 4.0 mi NNE 5.8 mph 17.3 mph N/A   Haze
2:15 PM 77.0 °F 73.4 °F 89% 29.93 in 0.8 mi NE 10.4 mph - N/A   Overcast
2:35 PM 77.0 °F 73.4 °F 89% 29.94 in 1.5 mi NE 8.1 mph - N/A   Mostly Cloudy
2:55 PM 73.4 °F 69.8 °F 88% 29.93 in 1.2 mi ESE 20.7 mph - N/A   Mostly Cloudy
3:15 PM 73.4 °F 68.0 °F 83% 29.93 in 0.5 mi East 15.0 mph 26.5 mph N/A   Overcast
3:35 PM 73.4 °F 68.0 °F 83% 29.92 in 0.2 mi NE 13.8 mph - N/A   Haze
3:55 PM 73.4 °F 68.0 °F 83% 29.90 in 6.0 mi NNE 15.0 mph - N/A   Haze
4:15 PM 73.4 °F 66.2 °F 78% 29.89 in 8.0 mi NNE 11.5 mph 18.4 mph N/A   Mostly Cloudy
4:35 PM 75.2 °F 69.8 °F 83% 29.88 in 7.0 mi NE 17.3 mph 24.2 mph N/A   Overcast
4:55 PM 75.2 °F 71.6 °F 89% 29.88 in 5.0 mi NNE 11.5 mph 19.6 mph N/A   Haze
5:15 PM 77.0 °F 71.6 °F 83% 29.87 in 7.0 mi NE 17.3 mph - N/A   Mostly Cloudy
5:35 PM 77.0 °F 71.6 °F 83% 29.87 in 7.0 mi NE 16.1 mph - N/A   Scattered Clouds
5:55 PM 77.0 °F 73.4 °F 89% 29.87 in 5.0 mi NNE 12.7 mph - N/A   Haze
6:15 PM 77.0 °F 73.4 °F 89% 29.87 in 4.0 mi NE 13.8 mph - N/A   Haze
6:35 PM 78.8 °F 73.4 °F 83% 29.87 in 5.0 mi NE 16.1 mph - N/A   Haze
6:55 PM 78.8 °F 73.4 °F 83% 29.87 in 5.0 mi NE 16.1 mph - N/A   Haze
7:15 PM 78.8 °F 73.4 °F 83% 29.87 in 5.0 mi NE 13.8 mph - N/A   Haze
7:35 PM 78.8 °F 71.6 °F 78% 29.87 in 5.0 mi NE 13.8 mph - N/A   Haze
7:55 PM 78.8 °F 73.4 °F 83% 29.86 in 5.0 mi NE 15.0 mph - N/A   Haze
8:15 PM 78.8 °F 73.4 °F 83% 29.86 in 6.0 mi NE 16.1 mph - N/A   Haze
8:35 PM 78.8 °F 71.6 °F 78% 29.87 in 8.0 mi NE 13.8 mph - N/A   Partly Cloudy
8:55 PM 78.8 °F 73.4 °F 83% 29.87 in 7.0 mi NE 16.1 mph - N/A   Partly Cloudy
9:15 PM 78.8 °F 71.6 °F 78% 29.88 in 9.0 mi NE 15.0 mph - N/A   Clear
9:35 PM 78.8 °F 71.6 °F 78% 29.87 in 9.0 mi NE 16.1 mph - N/A   Clear
9:55 PM 78.8 °F 71.6 °F 78% 29.88 in 9.0 mi NE 18.4 mph - N/A   Clear
10:15 PM 78.8 °F 71.6 °F 78% 29.89 in 10.0 mi ENE 15.0 mph - N/A   Clear
10:35 PM 78.8 °F 71.6 °F 78% 29.90 in 9.0 mi ENE 11.5 mph - N/A   Clear
10:55 PM 78.8 °F 71.6 °F 78% 29.89 in 9.0 mi NE 15.0 mph - N/A   Clear
11:15 PM 78.8 °F 71.6 °F 78% 29.89 in 10.0 mi NE 15.0 mph - N/A   Clear
11:35 PM 78.8 °F 71.6 °F 78% 29.90 in 10.0 mi NE 13.8 mph - N/A   Clear
11:55 PM 78.8 °F 71.6 °F 78% 29.90 in 10.0 mi NE 12.7 mph - N/A   Clear